createdAt,value
2022-12-17T00:02:43.606Z,-6.16
2022-12-17T00:05:30.753Z,-6.22
2022-12-17T00:08:19.242Z,-6.24
2022-12-17T00:11:06.268Z,-6.21
2022-12-17T00:13:53.084Z,-6.20
2022-12-17T00:16:42.036Z,-6.26
2022-12-17T00:19:29.445Z,-6.32
2022-12-17T00:22:16.805Z,-6.36
2022-12-17T00:25:03.843Z,-6.37
2022-12-17T00:27:51.020Z,-6.35
2022-12-17T00:30:38.585Z,-6.35
2022-12-17T00:33:25.853Z,-6.40
2022-12-17T00:36:13.880Z,-6.43
2022-12-17T00:39:00.759Z,-6.44
2022-12-17T00:41:47.742Z,-6.44
2022-12-17T00:44:34.838Z,-6.50
2022-12-17T00:47:21.715Z,-6.54
2022-12-17T00:50:08.583Z,-6.55
2022-12-17T00:52:55.593Z,-6.53
2022-12-17T00:55:43.380Z,-6.54
2022-12-17T00:58:30.543Z,-6.55
2022-12-17T01:01:20.016Z,-6.56
2022-12-17T01:04:07.338Z,-6.58
2022-12-17T01:06:54.644Z,-6.59
2022-12-17T01:09:43.862Z,-6.55
2022-12-17T01:12:31.262Z,-6.54
2022-12-17T01:15:18.364Z,-6.54
2022-12-17T01:18:05.202Z,-6.53
2022-12-17T01:20:52.282Z,-6.53
2022-12-17T01:23:39.571Z,-6.54
2022-12-17T01:26:26.691Z,-6.55
2022-12-17T01:29:16.197Z,-6.55
2022-12-17T01:32:03.204Z,-6.56
2022-12-17T01:34:50.526Z,-6.54
2022-12-17T01:37:37.477Z,-6.54
2022-12-17T01:40:25.135Z,-6.55
2022-12-17T01:43:12.086Z,-6.58
2022-12-17T01:46:08.168Z,-6.62
2022-12-17T01:49:02.042Z,-6.62
2022-12-17T01:51:50.539Z,-6.60
2022-12-17T01:54:38.220Z,-6.62
2022-12-17T01:57:26.942Z,-6.66
2022-12-17T02:00:33.054Z,-6.68
2022-12-17T02:03:20.125Z,-6.67
2022-12-17T02:06:22.743Z,-6.67
2022-12-17T02:09:27.717Z,-6.68
2022-12-17T02:12:14.915Z,-6.70
2022-12-17T02:15:18.608Z,-6.69
2022-12-17T02:18:11.901Z,-6.65
2022-12-17T02:21:25.184Z,-6.62
2022-12-17T02:24:18.542Z,-6.65
2022-12-17T02:27:09.061Z,-6.70
2022-12-17T02:30:21.455Z,-6.71
2022-12-17T02:33:10.572Z,-6.71
2022-12-17T02:36:03.174Z,-6.70
2022-12-17T02:38:52.194Z,-6.66
2022-12-17T02:41:47.947Z,-6.65
2022-12-17T02:44:38.385Z,-6.63
2022-12-17T02:47:48.546Z,-6.64
2022-12-17T02:50:36.494Z,-6.65
2022-12-17T02:53:34.775Z,-6.67
2022-12-17T02:56:22.185Z,-6.65
2022-12-17T02:59:09.054Z,-6.62
2022-12-17T03:01:56.211Z,-6.59
2022-12-17T03:04:43.487Z,-6.56
2022-12-17T03:07:30.737Z,-6.56
2022-12-17T03:10:17.879Z,-6.53
2022-12-17T03:13:04.830Z,-6.54
2022-12-17T03:15:51.895Z,-6.52
2022-12-17T03:18:38.720Z,-6.49
2022-12-17T03:21:25.496Z,-6.46
2022-12-17T03:24:12.416Z,-6.45
2022-12-17T03:26:59.601Z,-6.45
2022-12-17T03:29:46.753Z,-6.42
2022-12-17T03:32:33.653Z,-6.41
2022-12-17T03:35:20.735Z,-6.40
2022-12-17T03:38:07.760Z,-6.36
2022-12-17T03:40:54.678Z,-6.31
2022-12-17T03:43:41.782Z,-6.28
2022-12-17T03:46:28.954Z,-6.25
2022-12-17T03:49:15.963Z,-6.26
2022-12-17T03:52:03.077Z,-6.27
2022-12-17T03:54:50.254Z,-6.27
2022-12-17T03:57:37.547Z,-6.23
2022-12-17T04:00:29.745Z,-6.23
2022-12-17T04:03:16.769Z,-6.27
2022-12-17T04:06:03.795Z,-6.27
2022-12-17T04:08:50.860Z,-6.26
2022-12-17T04:11:38.283Z,-6.24
2022-12-17T04:14:25.118Z,-6.24
2022-12-17T04:17:12.186Z,-6.23
2022-12-17T04:19:59.083Z,-6.26
2022-12-17T04:22:46.412Z,-6.28
2022-12-17T04:25:33.387Z,-6.29
2022-12-17T04:28:20.581Z,-6.32
2022-12-17T04:31:07.768Z,-6.33
2022-12-17T04:33:54.926Z,-6.31
2022-12-17T04:36:41.797Z,-6.28
2022-12-17T04:39:28.731Z,-6.28
2022-12-17T04:42:15.580Z,-6.27
2022-12-17T04:45:02.548Z,-6.27
2022-12-17T04:47:49.454Z,-6.28
2022-12-17T04:50:36.418Z,-6.29
2022-12-17T04:53:25.894Z,-6.27
2022-12-17T04:56:15.875Z,-6.23
2022-12-17T04:59:02.958Z,-6.20
2022-12-17T05:01:50.091Z,-6.17
2022-12-17T05:04:37.423Z,-6.14
2022-12-17T05:07:24.493Z,-6.13
2022-12-17T05:10:11.765Z,-6.09
2022-12-17T05:12:58.938Z,-6.05
2022-12-17T05:15:51.363Z,-6.02
2022-12-17T05:18:40.029Z,-5.96
2022-12-17T05:21:30.574Z,-5.93
2022-12-17T05:24:20.533Z,-5.93
2022-12-17T05:27:07.588Z,-5.90
2022-12-17T05:29:54.370Z,-5.88
2022-12-17T05:32:41.428Z,-5.89
2022-12-17T05:35:29.036Z,-5.88
2022-12-17T05:38:23.003Z,-5.81
2022-12-17T05:41:11.046Z,-5.77
2022-12-17T05:43:58.053Z,-5.74
2022-12-17T05:46:46.487Z,-5.72
2022-12-17T05:49:33.489Z,-5.68
2022-12-17T05:52:20.746Z,-5.67
2022-12-17T05:55:07.553Z,-5.65
2022-12-17T05:57:56.541Z,-5.64
2022-12-17T06:00:44.137Z,-5.63
2022-12-17T06:03:31.204Z,-5.61
2022-12-17T06:06:18.262Z,-5.58
2022-12-17T06:09:05.302Z,-5.56
2022-12-17T06:11:53.928Z,-5.55
2022-12-17T06:14:42.497Z,-5.54
2022-12-17T06:17:29.565Z,-5.51
2022-12-17T06:20:17.134Z,-5.49
2022-12-17T06:23:04.262Z,-5.48
2022-12-17T06:25:51.071Z,-5.46
2022-12-17T06:28:38.454Z,-5.43
2022-12-17T06:31:25.536Z,-5.37
2022-12-17T06:34:12.601Z,-5.34
2022-12-17T06:36:59.811Z,-5.31
2022-12-17T06:39:46.495Z,-5.29
2022-12-17T06:42:33.401Z,-5.23
2022-12-17T06:45:20.346Z,-5.19
2022-12-17T06:48:07.715Z,-5.19
2022-12-17T06:50:54.489Z,-5.18
2022-12-17T06:53:41.457Z,-5.16
2022-12-17T06:56:28.406Z,-5.13
2022-12-17T06:59:15.347Z,-5.09
2022-12-17T07:02:02.307Z,-5.04
2022-12-17T07:04:49.363Z,-5.01
2022-12-17T07:07:36.421Z,-4.99
2022-12-17T07:10:23.918Z,-4.96
2022-12-17T07:13:10.973Z,-4.92
2022-12-17T07:15:57.934Z,-4.88
2022-12-17T07:18:44.786Z,-4.82
2022-12-17T07:21:31.817Z,-4.77
2022-12-17T07:24:19.011Z,-4.71
2022-12-17T07:27:06.081Z,-4.69
2022-12-17T07:29:53.257Z,-4.68
2022-12-17T07:32:41.219Z,-4.65
2022-12-17T07:35:28.710Z,-4.60
2022-12-17T07:38:20.995Z,-4.56
2022-12-17T07:41:07.998Z,-4.50
2022-12-17T07:43:54.888Z,-4.46
2022-12-17T07:46:42.085Z,-4.43
2022-12-17T07:49:28.975Z,-4.39
2022-12-17T07:52:16.030Z,-4.34
2022-12-17T07:55:03.011Z,-4.29
2022-12-17T07:57:50.022Z,-4.23
2022-12-17T08:00:37.220Z,-4.20
2022-12-17T08:03:24.358Z,-4.17
2022-12-17T08:06:11.945Z,-4.15
2022-12-17T08:08:58.882Z,-4.13
2022-12-17T08:11:46.504Z,-4.14
2022-12-17T08:14:33.502Z,-4.13
2022-12-17T08:17:20.367Z,-4.10
2022-12-17T08:20:07.597Z,-4.09
2022-12-17T08:22:54.905Z,-4.07
2022-12-17T08:25:41.812Z,-4.04
2022-12-17T08:31:36.451Z,-3.94
2022-12-17T08:34:23.817Z,-3.93
2022-12-17T08:37:10.766Z,-3.90
2022-12-17T08:39:57.646Z,-3.88
2022-12-17T08:42:45.173Z,-3.83
2022-12-17T08:45:32.218Z,-3.82
2022-12-17T08:48:27.075Z,-3.78
2022-12-17T08:51:13.994Z,-3.70
2022-12-17T08:54:00.944Z,-3.65
2022-12-17T08:56:47.954Z,-3.65
2022-12-17T08:59:35.135Z,-3.62
2022-12-17T09:02:22.322Z,-3.57
2022-12-17T09:05:09.741Z,-3.53
2022-12-17T09:07:56.953Z,-3.53
2022-12-17T09:10:44.139Z,-3.50
2022-12-17T09:13:30.951Z,-3.48
2022-12-17T09:16:18.204Z,-3.46
2022-12-17T09:19:05.129Z,-3.44
2022-12-17T09:21:52.105Z,-3.44
2022-12-17T09:24:39.388Z,-3.42
2022-12-17T09:27:26.527Z,-3.39
2022-12-17T09:30:13.398Z,-3.33
2022-12-17T09:33:00.617Z,-3.27
2022-12-17T09:35:48.122Z,-3.19
2022-12-17T09:38:36.371Z,-3.13
2022-12-17T09:42:00.376Z,-3.10
2022-12-17T09:45:15.206Z,-3.11
2022-12-17T09:48:19.613Z,-3.11
2022-12-17T09:51:10.469Z,-3.05
2022-12-17T09:54:10.888Z,-3.01
2022-12-17T09:57:01.267Z,-3.00
2022-12-17T09:59:53.227Z,-2.99
2022-12-17T10:02:48.231Z,-2.98
2022-12-17T10:05:42.735Z,-2.93
2022-12-17T10:08:43.562Z,-2.90
2022-12-17T10:11:40.684Z,-2.88
2022-12-17T10:14:38.784Z,-2.85
2022-12-17T10:17:42.053Z,-2.79
2022-12-17T10:20:49.613Z,-2.71
2022-12-17T10:23:48.321Z,-2.64
2022-12-17T10:26:39.307Z,-2.57
2022-12-17T10:29:47.445Z,-2.53
2022-12-17T10:32:35.433Z,-2.50
2022-12-17T10:35:31.130Z,-2.49
2022-12-17T10:38:38.103Z,-2.44
2022-12-17T10:41:40.970Z,-2.42
2022-12-17T10:44:46.471Z,-2.37
2022-12-17T10:47:41.630Z,-2.34
2022-12-17T10:50:33.375Z,-2.30
2022-12-17T10:53:21.834Z,-2.23
2022-12-17T10:56:15.620Z,-2.20
2022-12-17T10:59:08.460Z,-2.21
2022-12-17T11:01:59.147Z,-2.24
2022-12-17T11:04:49.665Z,-2.26
2022-12-17T11:07:42.901Z,-2.26
2022-12-17T11:10:42.900Z,-2.16
2022-12-17T11:13:40.615Z,-2.06
2022-12-17T11:16:45.096Z,-2.05
2022-12-17T11:19:31.975Z,-2.03
2022-12-17T11:22:58.562Z,-2.09
2022-12-17T11:26:23.757Z,-2.08
2022-12-17T11:29:10.946Z,-2.19
2022-12-17T11:32:18.348Z,-2.25
2022-12-17T11:35:22.230Z,-2.26
2022-12-17T11:38:45.066Z,-2.32
2022-12-17T11:41:42.016Z,-2.39
2022-12-17T11:44:36.660Z,-2.40
2022-12-17T11:47:57.489Z,-2.41
2022-12-17T11:51:00.025Z,-2.42
2022-12-17T11:54:16.120Z,-2.48
2022-12-17T11:57:19.725Z,-2.48
2022-12-17T12:00:35.461Z,-2.47
2022-12-17T12:03:28.774Z,-2.47
2022-12-17T12:06:23.086Z,-2.53
2022-12-17T12:09:22.328Z,-2.64
2022-12-17T12:12:34.533Z,-2.67
2022-12-17T12:15:37.450Z,-2.70
2022-12-17T12:18:54.289Z,-2.75
2022-12-17T12:21:56.830Z,-2.78
2022-12-17T12:25:13.513Z,-2.73
2022-12-17T12:28:23.342Z,-2.82
2022-12-17T12:31:19.758Z,-2.87
2022-12-17T12:34:18.083Z,-2.90
2022-12-17T12:37:05.423Z,-2.92
2022-12-17T12:40:17.500Z,-2.96
2022-12-17T12:43:07.820Z,-3.00
2022-12-17T12:46:20.844Z,-3.07
2022-12-17T12:49:12.498Z,-3.11
2022-12-17T12:52:00.186Z,-3.16
2022-12-17T12:55:09.345Z,-3.16
2022-12-17T12:58:18.844Z,-3.14
2022-12-17T13:01:06.013Z,-3.14
2022-12-17T13:03:55.972Z,-3.14
2022-12-17T13:06:49.316Z,-3.10
2022-12-17T13:09:18.486Z,-3.08
2022-12-17T13:12:05.310Z,-3.08
2022-12-17T13:14:42.841Z,-3.07
2022-12-17T13:17:17.171Z,-3.05
2022-12-17T13:20:02.129Z,-3.05
2022-12-17T13:22:34.253Z,-3.02
2022-12-17T13:25:20.806Z,-3.03
2022-12-17T13:27:50.355Z,-3.03
2022-12-17T13:30:18.791Z,-2.96
2022-12-17T13:33:30.171Z,-2.95
2022-12-17T13:36:29.766Z,-2.99
2022-12-17T13:39:07.421Z,-2.96
2022-12-17T13:41:38.934Z,-2.93
2022-12-17T13:44:40.663Z,-2.93
2022-12-17T13:47:25.096Z,-2.93
2022-12-17T13:50:32.368Z,-2.91
2022-12-17T13:52:45.205Z,-2.91
2022-12-17T13:55:26.302Z,-2.90
2022-12-17T13:57:55.531Z,-2.94
2022-12-17T14:00:31.348Z,-2.93
2022-12-17T14:03:11.011Z,-2.90
2022-12-17T14:05:43.990Z,-2.88
2022-12-17T14:08:17.678Z,-2.92
2022-12-17T14:11:13.444Z,-2.97
2022-12-17T14:13:44.061Z,-2.96
2022-12-17T14:16:20.006Z,-2.92
2022-12-17T14:18:57.380Z,-2.86
2022-12-17T14:21:28.335Z,-2.83
2022-12-17T14:23:58.132Z,-2.81
2022-12-17T14:26:26.813Z,-2.80
2022-12-17T14:28:56.250Z,-2.82
2022-12-17T14:31:30.370Z,-2.92
2022-12-17T14:34:11.993Z,-3.06
2022-12-17T14:36:43.966Z,-3.13
2022-12-17T14:39:32.798Z,-3.19
2022-12-17T14:42:32.768Z,-3.14
2022-12-17T14:45:17.049Z,-3.11
2022-12-17T14:48:00.270Z,-3.04
2022-12-17T14:50:37.842Z,-2.98
2022-12-17T14:53:35.743Z,-2.95
2022-12-17T14:56:04.207Z,-2.93
2022-12-17T14:58:32.704Z,-2.95
2022-12-17T15:01:12.908Z,-2.96
2022-12-17T15:03:44.426Z,-2.93
2022-12-17T15:06:20.735Z,-2.91
2022-12-17T15:08:53.444Z,-3.01
2022-12-17T15:11:23.040Z,-3.09
2022-12-17T15:13:56.272Z,-3.08
2022-12-17T15:16:25.287Z,-3.13
2022-12-17T15:18:53.912Z,-3.14
2022-12-17T15:21:24.141Z,-3.13
2022-12-17T15:23:53.269Z,-3.09
2022-12-17T15:26:22.111Z,-3.04
2022-12-17T15:28:50.713Z,-2.96
2022-12-17T15:31:24.449Z,-2.89
2022-12-17T15:33:54.032Z,-2.87
2022-12-17T15:36:23.119Z,-2.87
2022-12-17T15:38:52.021Z,-2.88
2022-12-17T15:41:39.461Z,-2.90
2022-12-17T15:44:08.084Z,-2.92
2022-12-17T15:46:36.779Z,-2.95
2022-12-17T15:49:05.347Z,-2.99
2022-12-17T15:51:34.261Z,-3.06
2022-12-17T15:54:02.921Z,-3.09
2022-12-17T15:56:35.143Z,-3.09
2022-12-17T15:59:03.960Z,-3.09
2022-12-17T16:01:32.750Z,-3.09
2022-12-17T16:04:01.586Z,-3.06
2022-12-17T16:06:31.352Z,-3.04
2022-12-17T16:09:00.756Z,-3.02
2022-12-17T16:11:29.297Z,-3.01
2022-12-17T16:13:58.084Z,-3.02
2022-12-17T16:16:27.596Z,-3.05
2022-12-17T16:18:57.023Z,-3.06
2022-12-17T16:21:25.573Z,-3.08
2022-12-17T16:23:54.108Z,-3.11
2022-12-17T16:26:23.018Z,-3.10
2022-12-17T16:28:52.434Z,-3.08
2022-12-17T16:31:22.143Z,-3.08
2022-12-17T16:33:51.012Z,-3.09
2022-12-17T16:36:21.953Z,-3.08
2022-12-17T16:38:54.554Z,-3.09
2022-12-17T16:41:23.907Z,-3.13
2022-12-17T16:43:54.117Z,-3.18
2022-12-17T16:46:26.673Z,-3.23
2022-12-17T16:48:58.413Z,-3.28
2022-12-17T16:51:29.738Z,-3.30
2022-12-17T16:54:04.063Z,-3.31
2022-12-17T16:56:39.485Z,-3.37
2022-12-17T16:59:10.805Z,-3.49
2022-12-17T17:01:41.526Z,-3.57
2022-12-17T17:04:10.220Z,-3.64
2022-12-17T17:06:47.507Z,-3.64
2022-12-17T17:09:16.998Z,-3.63
2022-12-17T17:11:50.939Z,-3.60
2022-12-17T17:14:20.319Z,-3.55
2022-12-17T17:16:49.170Z,-3.53
2022-12-17T17:19:19.811Z,-3.52
2022-12-17T17:21:54.396Z,-3.53
2022-12-17T17:24:25.804Z,-3.57
2022-12-17T17:26:55.600Z,-3.63
2022-12-17T17:29:24.342Z,-3.66
2022-12-17T17:32:09.681Z,-3.64
2022-12-17T17:34:40.379Z,-3.59
2022-12-17T17:37:09.138Z,-3.57
2022-12-17T17:39:37.993Z,-3.57
2022-12-17T17:42:06.787Z,-3.58
2022-12-17T17:44:35.983Z,-3.62
2022-12-17T17:47:08.231Z,-3.66
2022-12-17T17:49:36.828Z,-3.66
2022-12-17T17:52:10.637Z,-3.65
2022-12-17T17:54:40.676Z,-3.63
2022-12-17T17:57:10.101Z,-3.59
2022-12-17T17:59:42.736Z,-3.56
2022-12-17T18:02:11.699Z,-3.55
2022-12-17T18:04:40.406Z,-3.53
2022-12-17T18:07:25.758Z,-3.52
2022-12-17T18:09:55.877Z,-3.52
2022-12-17T18:12:43.119Z,-3.55
2022-12-17T18:15:14.789Z,-3.56
2022-12-17T18:17:51.653Z,-3.56
2022-12-17T18:20:20.794Z,-3.54
2022-12-17T18:22:50.846Z,-3.57
2022-12-17T18:25:19.677Z,-3.57
2022-12-17T18:27:48.927Z,-3.57
2022-12-17T18:30:17.813Z,-3.58
2022-12-17T18:32:49.697Z,-3.58
2022-12-17T18:35:18.590Z,-3.54
2022-12-17T18:37:47.355Z,-3.51
2022-12-17T18:40:15.773Z,-3.49
2022-12-17T18:43:03.673Z,-3.49
2022-12-17T18:45:32.312Z,-3.50
2022-12-17T18:48:01.352Z,-3.58
2022-12-17T18:50:30.158Z,-3.64
2022-12-17T18:52:58.494Z,-3.66
2022-12-17T18:55:27.306Z,-3.67
2022-12-17T18:57:56.440Z,-3.66
2022-12-17T19:00:25.034Z,-3.64
2022-12-17T19:02:53.949Z,-3.62
2022-12-17T19:05:23.516Z,-3.62
2022-12-17T19:07:52.587Z,-3.65
2022-12-17T19:10:21.825Z,-3.67
2022-12-17T19:12:50.618Z,-3.70
2022-12-17T19:15:19.969Z,-3.71
2022-12-17T19:17:51.694Z,-3.72
2022-12-17T19:20:20.593Z,-3.72
2022-12-17T19:22:49.568Z,-3.74
2022-12-17T19:25:18.793Z,-3.75
2022-12-17T19:27:49.509Z,-3.77
2022-12-17T19:30:18.309Z,-3.79
2022-12-17T19:32:46.853Z,-3.80
2022-12-17T19:35:15.310Z,-3.80
2022-12-17T19:37:43.950Z,-3.81
2022-12-17T19:40:13.508Z,-3.79
2022-12-17T19:42:44.035Z,-3.81
2022-12-17T19:45:12.794Z,-3.83
2022-12-17T19:47:41.842Z,-3.82
2022-12-17T19:50:11.168Z,-3.82
2022-12-17T19:52:39.746Z,-3.82
2022-12-17T19:55:10.976Z,-3.82
2022-12-17T19:57:39.768Z,-3.81
2022-12-17T20:00:12.874Z,-3.81
2022-12-17T20:02:41.339Z,-3.83
2022-12-17T20:05:11.041Z,-3.84
2022-12-17T20:07:40.979Z,-3.86
2022-12-17T20:10:10.277Z,-3.88
2022-12-17T20:12:40.498Z,-3.92
2022-12-17T20:15:10.147Z,-3.91
2022-12-17T20:17:41.303Z,-3.92
2022-12-17T20:20:11.321Z,-3.92
2022-12-17T20:22:41.502Z,-3.95
2022-12-17T20:25:12.349Z,-3.97
2022-12-17T20:27:42.397Z,-3.97
2022-12-17T20:30:13.113Z,-3.95
2022-12-17T20:32:42.729Z,-3.92
2022-12-17T20:35:11.592Z,-3.90
2022-12-17T20:37:41.677Z,-3.88
2022-12-17T20:40:11.192Z,-3.84
2022-12-17T20:42:39.678Z,-3.85
2022-12-17T20:45:09.841Z,-3.85
2022-12-17T20:47:38.608Z,-3.88
2022-12-17T20:50:08.370Z,-3.90
2022-12-17T20:52:38.105Z,-3.88
2022-12-17T20:55:07.720Z,-3.84
2022-12-17T20:57:36.928Z,-3.79
2022-12-17T21:00:06.803Z,-3.79
2022-12-17T21:02:37.092Z,-3.81
2022-12-17T21:05:06.817Z,-3.81
2022-12-17T21:07:35.868Z,-3.80
2022-12-17T21:10:05.019Z,-3.79
2022-12-17T21:12:54.076Z,-3.80
2022-12-17T21:15:23.197Z,-3.79
2022-12-17T21:17:52.603Z,-3.78
2022-12-17T21:20:22.153Z,-3.80
2022-12-17T21:22:51.198Z,-3.84
2022-12-17T21:25:19.768Z,-3.86
2022-12-17T21:27:48.262Z,-3.84
2022-12-17T21:30:16.761Z,-3.80
2022-12-17T21:32:45.458Z,-3.79
2022-12-17T21:35:16.169Z,-3.79
2022-12-17T21:37:46.591Z,-3.79
2022-12-17T21:40:15.791Z,-3.80
2022-12-17T21:43:02.302Z,-3.80
2022-12-17T21:45:39.635Z,-3.82
2022-12-17T21:48:11.351Z,-3.85
2022-12-17T21:50:45.673Z,-3.85
2022-12-17T21:53:15.302Z,-3.85
2022-12-17T21:55:44.353Z,-3.86
2022-12-17T21:58:13.473Z,-3.88
2022-12-17T22:00:43.030Z,-3.89
2022-12-17T22:03:11.411Z,-3.90
2022-12-17T22:05:40.041Z,-3.89
2022-12-17T22:08:08.629Z,-3.91
2022-12-17T22:10:47.495Z,-3.92
2022-12-17T22:13:35.578Z,-3.92
2022-12-17T22:16:07.758Z,-3.91
2022-12-17T22:18:36.386Z,-3.93
2022-12-17T22:21:05.011Z,-3.95
2022-12-17T22:23:33.478Z,-3.97
2022-12-17T22:26:02.209Z,-3.99
2022-12-17T22:28:30.782Z,-4.02
2022-12-17T22:31:23.369Z,-4.03
2022-12-17T22:34:10.323Z,-4.04
2022-12-17T22:40:41.867Z,-4.05
2022-12-17T22:44:30.753Z,-4.08
2022-12-17T22:44:35.976Z,-4.11
2022-12-17T22:45:26.625Z,-4.14
2022-12-17T22:47:55.376Z,-4.14
2022-12-17T22:50:28.531Z,-4.13
2022-12-17T22:53:04.777Z,-4.15
2022-12-17T22:55:34.896Z,-4.17
2022-12-17T22:58:04.119Z,-4.20
2022-12-17T23:00:35.029Z,-4.22
2022-12-17T23:03:04.224Z,-4.23
2022-12-17T23:05:33.714Z,-4.23
2022-12-17T23:08:02.159Z,-4.22
2022-12-17T23:10:30.784Z,-4.22
2022-12-17T23:12:59.143Z,-4.21
2022-12-17T23:15:38.664Z,-4.22
2022-12-17T23:18:08.181Z,-4.26
2022-12-17T23:20:37.411Z,-4.28
2022-12-17T23:23:05.737Z,-4.31
2022-12-17T23:25:34.203Z,-4.34
2022-12-17T23:28:02.515Z,-4.36
2022-12-17T23:30:31.142Z,-4.36
2022-12-17T23:32:59.423Z,-4.35
2022-12-17T23:35:27.966Z,-4.36
2022-12-17T23:37:56.251Z,-4.39
2022-12-17T23:40:25.562Z,-4.43
2022-12-17T23:42:54.109Z,-4.46
2022-12-17T23:45:22.390Z,-4.49
2022-12-17T23:47:50.751Z,-4.50
2022-12-17T23:50:19.161Z,-4.50
2022-12-17T23:52:47.567Z,-4.50
2022-12-17T23:55:16.075Z,-4.50
2022-12-17T23:57:44.433Z,-4.52
